Terminal Aerodrome Forecast
Issued by NWS

Home | Current Version | Previous Version | Text Only | Print | Product List | Glossary Off
Versions: 1 2 3 4 5 6 7 8 9 10 11 12 13 14 15

000
FTUS42 KMHX 010939 AAA
TAFPGV
TAF AMD
KPGV 010939Z 0110/0206 23006KT P6SM SCT008
      TEMPO 0110/0113 BKN008
     FM011400 25007KT P6SM FEW050 SCT250
      AMD LTD TO CLD VIS AND WIND=

USA.gov is the U.S. government's official web portal to all federal, state and local government web resources and services.